sensor_id;sensor_type;location;lat;lon;timestamp;P1;durP1;ratioP1;P2;durP2;ratioP2
8474;SDS011;4274;52.012;8.448;2022-12-18T00:01:36;46.93;;;6.73;;
8474;SDS011;4274;52.012;8.448;2022-12-18T00:04:03;52.00;;;9.03;;
8474;SDS011;4274;52.012;8.448;2022-12-18T00:06:31;43.87;;;8.30;;
8474;SDS011;4274;52.012;8.448;2022-12-18T00:08:58;47.37;;;12.40;;
8474;SDS011;4274;52.012;8.448;2022-12-18T00:11:26;44.70;;;10.40;;
8474;SDS011;4274;52.012;8.448;2022-12-18T00:13:53;48.20;;;10.97;;
8474;SDS011;4274;52.012;8.448;2022-12-18T00:16:21;46.60;;;12.17;;
8474;SDS011;4274;52.012;8.448;2022-12-18T00:18:49;45.53;;;9.60;;
8474;SDS011;4274;52.012;8.448;2022-12-18T00:21:17;50.00;;;9.10;;
8474;SDS011;4274;52.012;8.448;2022-12-18T00:23:45;45.00;;;9.10;;
8474;SDS011;4274;52.012;8.448;2022-12-18T00:26:12;44.53;;;7.87;;
8474;SDS011;4274;52.012;8.448;2022-12-18T00:28:43;41.90;;;7.00;;
8474;SDS011;4274;52.012;8.448;2022-12-18T00:31:10;42.23;;;6.50;;
8474;SDS011;4274;52.012;8.448;2022-12-18T00:33:39;56.83;;;6.57;;
8474;SDS011;4274;52.012;8.448;2022-12-18T00:36:05;42.37;;;5.67;;
8474;SDS011;4274;52.012;8.448;2022-12-18T00:38:36;39.67;;;6.33;;
8474;SDS011;4274;52.012;8.448;2022-12-18T00:41:03;40.57;;;5.80;;
8474;SDS011;4274;52.012;8.448;2022-12-18T00:43:29;40.00;;;5.40;;
8474;SDS011;4274;52.012;8.448;2022-12-18T00:45:54;40.87;;;6.27;;
8474;SDS011;4274;52.012;8.448;2022-12-18T00:48:20;42.37;;;5.60;;
8474;SDS011;4274;52.012;8.448;2022-12-18T00:50:47;40.60;;;5.33;;
8474;SDS011;4274;52.012;8.448;2022-12-18T00:53:13;43.40;;;6.47;;
8474;SDS011;4274;52.012;8.448;2022-12-18T00:55:40;41.00;;;6.10;;
8474;SDS011;4274;52.012;8.448;2022-12-18T00:58:06;41.67;;;5.27;;
8474;SDS011;4274;52.012;8.448;2022-12-18T01:00:32;42.70;;;6.30;;
8474;SDS011;4274;52.012;8.448;2022-12-18T01:02:58;41.60;;;6.50;;
8474;SDS011;4274;52.012;8.448;2022-12-18T01:05:24;42.10;;;6.17;;
8474;SDS011;4274;52.012;8.448;2022-12-18T01:07:50;41.60;;;6.27;;
8474;SDS011;4274;52.012;8.448;2022-12-18T01:10:16;44.63;;;7.10;;
8474;SDS011;4274;52.012;8.448;2022-12-18T01:12:41;45.50;;;6.77;;
8474;SDS011;4274;52.012;8.448;2022-12-18T01:15:07;40.60;;;6.13;;
8474;SDS011;4274;52.012;8.448;2022-12-18T01:17:33;42.70;;;5.97;;
8474;SDS011;4274;52.012;8.448;2022-12-18T01:19:59;39.00;;;5.50;;
8474;SDS011;4274;52.012;8.448;2022-12-18T01:22:24;44.80;;;6.43;;
8474;SDS011;4274;52.012;8.448;2022-12-18T01:24:50;46.13;;;5.43;;
8474;SDS011;4274;52.012;8.448;2022-12-18T01:27:15;42.93;;;5.30;;
8474;SDS011;4274;52.012;8.448;2022-12-18T01:29:41;39.80;;;5.47;;
8474;SDS011;4274;52.012;8.448;2022-12-18T01:32:07;39.27;;;4.83;;
8474;SDS011;4274;52.012;8.448;2022-12-18T01:34:34;42.93;;;5.80;;
8474;SDS011;4274;52.012;8.448;2022-12-18T01:37:02;41.43;;;5.30;;
8474;SDS011;4274;52.012;8.448;2022-12-18T01:39:28;39.77;;;5.23;;
8474;SDS011;4274;52.012;8.448;2022-12-18T01:41:54;42.60;;;5.97;;
8474;SDS011;4274;52.012;8.448;2022-12-18T01:47:15;41.67;;;5.37;;
8474;SDS011;4274;52.012;8.448;2022-12-18T01:49:46;41.23;;;6.33;;
8474;SDS011;4274;52.012;8.448;2022-12-18T01:52:12;43.90;;;5.50;;
8474;SDS011;4274;52.012;8.448;2022-12-18T01:54:38;42.40;;;5.13;;
8474;SDS011;4274;52.012;8.448;2022-12-18T01:57:04;39.80;;;4.90;;
8474;SDS011;4274;52.012;8.448;2022-12-18T01:59:30;42.47;;;5.50;;
8474;SDS011;4274;52.012;8.448;2022-12-18T02:01:57;43.43;;;5.67;;
8474;SDS011;4274;52.012;8.448;2022-12-18T02:04:26;42.30;;;5.03;;
8474;SDS011;4274;52.012;8.448;2022-12-18T02:06:59;38.10;;;4.80;;
8474;SDS011;4274;52.012;8.448;2022-12-18T02:09:46;45.37;;;5.03;;
8474;SDS011;4274;52.012;8.448;2022-12-18T02:12:30;41.37;;;4.80;;
8474;SDS011;4274;52.012;8.448;2022-12-18T02:17:54;42.73;;;5.87;;
8474;SDS011;4274;52.012;8.448;2022-12-18T02:22:59;39.10;;;4.50;;
8474;SDS011;4274;52.012;8.448;2022-12-18T02:28:58;42.30;;;5.50;;
8474;SDS011;4274;52.012;8.448;2022-12-18T02:31:36;38.53;;;4.70;;
8474;SDS011;4274;52.012;8.448;2022-12-18T02:34:07;38.77;;;4.30;;
8474;SDS011;4274;52.012;8.448;2022-12-18T02:36:35;39.50;;;4.87;;
8474;SDS011;4274;52.012;8.448;2022-12-18T02:39:05;41.77;;;5.10;;
8474;SDS011;4274;52.012;8.448;2022-12-18T02:41:33;41.37;;;4.97;;
8474;SDS011;4274;52.012;8.448;2022-12-18T02:44:01;40.50;;;5.33;;
8474;SDS011;4274;52.012;8.448;2022-12-18T02:46:34;45.60;;;4.60;;
8474;SDS011;4274;52.012;8.448;2022-12-18T02:49:08;38.50;;;4.97;;
8474;SDS011;4274;52.012;8.448;2022-12-18T02:54:57;41.23;;;4.90;;
8474;SDS011;4274;52.012;8.448;2022-12-18T02:57:42;39.57;;;4.40;;
8474;SDS011;4274;52.012;8.448;2022-12-18T03:00:19;43.53;;;4.57;;
8474;SDS011;4274;52.012;8.448;2022-12-18T03:05:37;39.13;;;4.27;;
8474;SDS011;4274;52.012;8.448;2022-12-18T03:08:21;43.07;;;5.10;;
8474;SDS011;4274;52.012;8.448;2022-12-18T03:10:49;43.77;;;5.10;;
8474;SDS011;4274;52.012;8.448;2022-12-18T03:13:24;41.00;;;4.83;;
8474;SDS011;4274;52.012;8.448;2022-12-18T03:15:55;39.30;;;4.70;;
8474;SDS011;4274;52.012;8.448;2022-12-18T03:18:24;38.70;;;4.33;;
8474;SDS011;4274;52.012;8.448;2022-12-18T03:20:56;40.83;;;5.27;;
8474;SDS011;4274;52.012;8.448;2022-12-18T03:23:27;41.90;;;4.63;;
8474;SDS011;4274;52.012;8.448;2022-12-18T03:25:57;40.37;;;4.87;;
8474;SDS011;4274;52.012;8.448;2022-12-18T03:28:25;41.70;;;5.50;;
8474;SDS011;4274;52.012;8.448;2022-12-18T03:30:56;40.70;;;4.53;;
8474;SDS011;4274;52.012;8.448;2022-12-18T03:33:27;39.30;;;4.43;;
8474;SDS011;4274;52.012;8.448;2022-12-18T03:36:05;41.43;;;5.37;;
8474;SDS011;4274;52.012;8.448;2022-12-18T03:38:31;40.77;;;4.90;;
8474;SDS011;4274;52.012;8.448;2022-12-18T03:46:20;38.77;;;4.40;;
8474;SDS011;4274;52.012;8.448;2022-12-18T03:49:01;39.80;;;3.90;;
8474;SDS011;4274;52.012;8.448;2022-12-18T03:54:14;41.60;;;4.60;;
8474;SDS011;4274;52.012;8.448;2022-12-18T03:56:43;38.27;;;3.90;;
8474;SDS011;4274;52.012;8.448;2022-12-18T03:59:12;40.00;;;4.87;;
8474;SDS011;4274;52.012;8.448;2022-12-18T04:01:42;41.43;;;5.60;;
8474;SDS011;4274;52.012;8.448;2022-12-18T04:04:14;39.67;;;4.63;;
8474;SDS011;4274;52.012;8.448;2022-12-18T04:06:41;41.43;;;5.20;;
8474;SDS011;4274;52.012;8.448;2022-12-18T04:09:08;38.77;;;4.70;;
8474;SDS011;4274;52.012;8.448;2022-12-18T04:11:34;42.00;;;5.43;;
8474;SDS011;4274;52.012;8.448;2022-12-18T04:14:00;41.23;;;5.13;;
8474;SDS011;4274;52.012;8.448;2022-12-18T04:16:26;40.87;;;5.23;;
8474;SDS011;4274;52.012;8.448;2022-12-18T04:18:52;39.53;;;4.37;;
8474;SDS011;4274;52.012;8.448;2022-12-18T04:21:18;39.57;;;4.93;;
8474;SDS011;4274;52.012;8.448;2022-12-18T04:23:44;40.57;;;5.20;;
8474;SDS011;4274;52.012;8.448;2022-12-18T04:26:09;43.80;;;6.30;;
8474;SDS011;4274;52.012;8.448;2022-12-18T04:28:35;45.10;;;4.97;;
8474;SDS011;4274;52.012;8.448;2022-12-18T04:31:00;41.50;;;5.77;;
8474;SDS011;4274;52.012;8.448;2022-12-18T04:33:26;40.70;;;5.43;;
8474;SDS011;4274;52.012;8.448;2022-12-18T04:35:52;41.00;;;5.00;;
8474;SDS011;4274;52.012;8.448;2022-12-18T04:38:18;41.50;;;5.53;;
8474;SDS011;4274;52.012;8.448;2022-12-18T04:40:43;45.10;;;5.57;;
8474;SDS011;4274;52.012;8.448;2022-12-18T04:43:09;40.63;;;5.40;;
8474;SDS011;4274;52.012;8.448;2022-12-18T04:45:34;41.07;;;5.63;;
8474;SDS011;4274;52.012;8.448;2022-12-18T04:48:01;41.40;;;5.37;;
8474;SDS011;4274;52.012;8.448;2022-12-18T04:50:27;41.70;;;5.33;;
8474;SDS011;4274;52.012;8.448;2022-12-18T04:52:53;42.47;;;5.03;;
8474;SDS011;4274;52.012;8.448;2022-12-18T04:55:19;41.40;;;6.10;;
8474;SDS011;4274;52.012;8.448;2022-12-18T04:57:45;40.97;;;5.93;;
8474;SDS011;4274;52.012;8.448;2022-12-18T05:00:11;44.00;;;6.30;;
8474;SDS011;4274;52.012;8.448;2022-12-18T05:02:37;41.70;;;5.47;;
8474;SDS011;4274;52.012;8.448;2022-12-18T05:05:03;46.30;;;6.83;;
8474;SDS011;4274;52.012;8.448;2022-12-18T05:07:29;44.73;;;6.60;;
8474;SDS011;4274;52.012;8.448;2022-12-18T05:09:55;45.43;;;6.13;;
8474;SDS011;4274;52.012;8.448;2022-12-18T05:12:20;42.73;;;5.80;;
8474;SDS011;4274;52.012;8.448;2022-12-18T05:14:46;43.90;;;5.80;;
8474;SDS011;4274;52.012;8.448;2022-12-18T05:17:11;44.17;;;6.40;;
8474;SDS011;4274;52.012;8.448;2022-12-18T05:19:37;43.60;;;6.20;;
8474;SDS011;4274;52.012;8.448;2022-12-18T05:22:02;42.70;;;6.40;;
8474;SDS011;4274;52.012;8.448;2022-12-18T05:24:28;43.10;;;6.10;;
8474;SDS011;4274;52.012;8.448;2022-12-18T05:26:54;41.33;;;5.33;;
8474;SDS011;4274;52.012;8.448;2022-12-18T05:29:19;42.60;;;6.20;;
8474;SDS011;4274;52.012;8.448;2022-12-18T05:31:45;42.93;;;5.80;;
8474;SDS011;4274;52.012;8.448;2022-12-18T05:34:10;45.33;;;7.03;;
8474;SDS011;4274;52.012;8.448;2022-12-18T05:36:36;45.57;;;6.70;;
8474;SDS011;4274;52.012;8.448;2022-12-18T05:39:01;43.37;;;6.20;;
8474;SDS011;4274;52.012;8.448;2022-12-18T05:41:27;42.20;;;6.50;;
8474;SDS011;4274;52.012;8.448;2022-12-18T05:43:53;44.33;;;6.33;;
8474;SDS011;4274;52.012;8.448;2022-12-18T05:46:19;43.50;;;6.27;;
8474;SDS011;4274;52.012;8.448;2022-12-18T05:48:45;45.77;;;6.33;;
8474;SDS011;4274;52.012;8.448;2022-12-18T05:51:12;46.17;;;6.87;;
8474;SDS011;4274;52.012;8.448;2022-12-18T05:53:40;48.63;;;6.03;;
8474;SDS011;4274;52.012;8.448;2022-12-18T05:56:08;44.00;;;6.47;;
8474;SDS011;4274;52.012;8.448;2022-12-18T05:58:39;42.40;;;5.70;;
8474;SDS011;4274;52.012;8.448;2022-12-18T06:01:09;43.30;;;6.50;;
8474;SDS011;4274;52.012;8.448;2022-12-18T06:03:43;43.87;;;6.77;;
8474;SDS011;4274;52.012;8.448;2022-12-18T06:06:13;44.50;;;6.77;;
8474;SDS011;4274;52.012;8.448;2022-12-18T06:08:44;48.33;;;7.20;;
8474;SDS011;4274;52.012;8.448;2022-12-18T06:11:09;43.30;;;6.43;;
8474;SDS011;4274;52.012;8.448;2022-12-18T06:13:35;46.73;;;6.80;;
8474;SDS011;4274;52.012;8.448;2022-12-18T06:16:02;45.60;;;7.47;;
8474;SDS011;4274;52.012;8.448;2022-12-18T06:18:31;44.27;;;7.47;;
8474;SDS011;4274;52.012;8.448;2022-12-18T06:20:57;45.10;;;6.60;;
8474;SDS011;4274;52.012;8.448;2022-12-18T06:23:24;47.63;;;7.57;;
8474;SDS011;4274;52.012;8.448;2022-12-18T06:25:50;44.87;;;7.50;;
8474;SDS011;4274;52.012;8.448;2022-12-18T06:28:16;42.67;;;6.77;;
8474;SDS011;4274;52.012;8.448;2022-12-18T06:30:48;47.00;;;7.60;;
8474;SDS011;4274;52.012;8.448;2022-12-18T06:33:14;47.53;;;8.03;;
8474;SDS011;4274;52.012;8.448;2022-12-18T06:35:40;42.03;;;6.23;;
8474;SDS011;4274;52.012;8.448;2022-12-18T06:38:06;43.60;;;6.80;;
8474;SDS011;4274;52.012;8.448;2022-12-18T06:40:32;47.23;;;8.30;;
8474;SDS011;4274;52.012;8.448;2022-12-18T06:42:58;46.23;;;7.30;;
8474;SDS011;4274;52.012;8.448;2022-12-18T06:45:24;43.67;;;7.27;;
8474;SDS011;4274;52.012;8.448;2022-12-18T06:47:49;44.57;;;7.07;;
8474;SDS011;4274;52.012;8.448;2022-12-18T06:50:15;50.20;;;6.80;;
8474;SDS011;4274;52.012;8.448;2022-12-18T06:52:41;44.80;;;7.83;;
8474;SDS011;4274;52.012;8.448;2022-12-18T06:55:08;43.47;;;6.67;;
8474;SDS011;4274;52.012;8.448;2022-12-18T06:57:35;45.90;;;7.20;;
8474;SDS011;4274;52.012;8.448;2022-12-18T07:00:01;44.17;;;6.53;;
8474;SDS011;4274;52.012;8.448;2022-12-18T07:02:29;45.80;;;6.90;;
8474;SDS011;4274;52.012;8.448;2022-12-18T07:04:54;42.77;;;6.20;;
8474;SDS011;4274;52.012;8.448;2022-12-18T07:07:20;41.93;;;5.90;;
8474;SDS011;4274;52.012;8.448;2022-12-18T07:09:45;44.27;;;6.53;;
8474;SDS011;4274;52.012;8.448;2022-12-18T07:12:11;44.40;;;6.30;;
8474;SDS011;4274;52.012;8.448;2022-12-18T07:14:36;44.67;;;6.80;;
8474;SDS011;4274;52.012;8.448;2022-12-18T07:17:02;43.90;;;7.00;;
8474;SDS011;4274;52.012;8.448;2022-12-18T07:19:28;47.40;;;7.37;;
8474;SDS011;4274;52.012;8.448;2022-12-18T07:21:54;42.47;;;6.43;;
8474;SDS011;4274;52.012;8.448;2022-12-18T07:24:20;47.07;;;5.20;;
8474;SDS011;4274;52.012;8.448;2022-12-18T07:26:45;42.43;;;5.60;;
8474;SDS011;4274;52.012;8.448;2022-12-18T07:29:11;40.30;;;5.17;;
8474;SDS011;4274;52.012;8.448;2022-12-18T07:31:38;40.20;;;5.47;;
8474;SDS011;4274;52.012;8.448;2022-12-18T07:34:03;39.80;;;5.50;;
8474;SDS011;4274;52.012;8.448;2022-12-18T07:36:29;41.37;;;5.97;;
8474;SDS011;4274;52.012;8.448;2022-12-18T07:38:54;43.37;;;5.90;;
8474;SDS011;4274;52.012;8.448;2022-12-18T07:41:21;44.27;;;5.60;;
8474;SDS011;4274;52.012;8.448;2022-12-18T07:43:46;41.20;;;5.50;;
8474;SDS011;4274;52.012;8.448;2022-12-18T07:46:12;47.17;;;5.97;;
8474;SDS011;4274;52.012;8.448;2022-12-18T07:48:39;42.97;;;6.13;;
8474;SDS011;4274;52.012;8.448;2022-12-18T07:51:06;43.13;;;6.00;;
8474;SDS011;4274;52.012;8.448;2022-12-18T07:53:32;43.77;;;6.20;;
8474;SDS011;4274;52.012;8.448;2022-12-18T07:55:59;44.47;;;5.23;;
8474;SDS011;4274;52.012;8.448;2022-12-18T07:58:27;44.63;;;6.20;;
8474;SDS011;4274;52.012;8.448;2022-12-18T08:00:53;43.73;;;6.00;;
8474;SDS011;4274;52.012;8.448;2022-12-18T08:03:19;41.03;;;5.33;;
8474;SDS011;4274;52.012;8.448;2022-12-18T08:05:44;41.80;;;6.07;;
8474;SDS011;4274;52.012;8.448;2022-12-18T08:08:10;42.27;;;5.40;;
8474;SDS011;4274;52.012;8.448;2022-12-18T08:10:35;41.50;;;5.33;;
8474;SDS011;4274;52.012;8.448;2022-12-18T08:13:02;44.93;;;6.60;;
8474;SDS011;4274;52.012;8.448;2022-12-18T08:15:28;45.30;;;6.87;;
8474;SDS011;4274;52.012;8.448;2022-12-18T08:17:56;49.43;;;5.57;;
8474;SDS011;4274;52.012;8.448;2022-12-18T08:20:22;42.40;;;5.43;;
8474;SDS011;4274;52.012;8.448;2022-12-18T08:22:47;46.07;;;5.83;;
8474;SDS011;4274;52.012;8.448;2022-12-18T08:25:13;40.87;;;5.40;;
8474;SDS011;4274;52.012;8.448;2022-12-18T08:27:38;39.33;;;5.00;;
8474;SDS011;4274;52.012;8.448;2022-12-18T08:30:04;44.77;;;5.90;;
8474;SDS011;4274;52.012;8.448;2022-12-18T08:32:30;42.47;;;5.90;;
8474;SDS011;4274;52.012;8.448;2022-12-18T08:34:57;42.13;;;5.47;;
8474;SDS011;4274;52.012;8.448;2022-12-18T08:37:23;42.60;;;5.17;;
8474;SDS011;4274;52.012;8.448;2022-12-18T08:39:49;41.30;;;5.67;;
8474;SDS011;4274;52.012;8.448;2022-12-18T08:42:14;40.90;;;4.83;;
8474;SDS011;4274;52.012;8.448;2022-12-18T08:44:58;40.83;;;5.33;;
8474;SDS011;4274;52.012;8.448;2022-12-18T08:47:24;42.90;;;5.43;;
8474;SDS011;4274;52.012;8.448;2022-12-18T08:49:50;40.80;;;5.03;;
8474;SDS011;4274;52.012;8.448;2022-12-18T08:52:16;45.00;;;4.63;;
8474;SDS011;4274;52.012;8.448;2022-12-18T08:54:42;43.77;;;5.93;;
8474;SDS011;4274;52.012;8.448;2022-12-18T08:57:07;44.90;;;6.20;;
8474;SDS011;4274;52.012;8.448;2022-12-18T08:59:33;43.30;;;5.70;;
8474;SDS011;4274;52.012;8.448;2022-12-18T09:01:59;44.77;;;6.00;;
8474;SDS011;4274;52.012;8.448;2022-12-18T09:04:24;42.87;;;5.27;;
8474;SDS011;4274;52.012;8.448;2022-12-18T09:06:50;46.30;;;6.77;;
8474;SDS011;4274;52.012;8.448;2022-12-18T09:09:15;45.30;;;5.80;;
8474;SDS011;4274;52.012;8.448;2022-12-18T09:11:41;43.60;;;5.90;;
8474;SDS011;4274;52.012;8.448;2022-12-18T09:14:06;45.73;;;6.60;;
8474;SDS011;4274;52.012;8.448;2022-12-18T09:16:34;47.97;;;6.80;;
8474;SDS011;4274;52.012;8.448;2022-12-18T09:18:59;44.13;;;6.07;;
8474;SDS011;4274;52.012;8.448;2022-12-18T09:21:27;45.07;;;6.23;;
8474;SDS011;4274;52.012;8.448;2022-12-18T09:23:55;45.67;;;7.00;;
8474;SDS011;4274;52.012;8.448;2022-12-18T09:26:21;137.10;;;37.60;;
8474;SDS011;4274;52.012;8.448;2022-12-18T09:28:48;98.17;;;25.30;;
8474;SDS011;4274;52.012;8.448;2022-12-18T09:31:14;75.63;;;18.73;;
8474;SDS011;4274;52.012;8.448;2022-12-18T09:33:41;63.20;;;15.00;;
8474;SDS011;4274;52.012;8.448;2022-12-18T09:36:08;46.87;;;8.13;;
8474;SDS011;4274;52.012;8.448;2022-12-18T09:38:35;47.03;;;8.20;;
8474;SDS011;4274;52.012;8.448;2022-12-18T09:41:24;55.83;;;11.80;;
8474;SDS011;4274;52.012;8.448;2022-12-18T09:44:03;50.40;;;9.60;;
8474;SDS011;4274;52.012;8.448;2022-12-18T09:46:41;53.30;;;12.50;;
8474;SDS011;4274;52.012;8.448;2022-12-18T09:49:13;44.40;;;6.60;;
8474;SDS011;4274;52.012;8.448;2022-12-18T09:51:47;46.70;;;7.53;;
8474;SDS011;4274;52.012;8.448;2022-12-18T09:54:26;42.90;;;6.33;;
8474;SDS011;4274;52.012;8.448;2022-12-18T09:57:04;45.87;;;7.30;;
8474;SDS011;4274;52.012;8.448;2022-12-18T09:59:37;45.47;;;6.30;;
8474;SDS011;4274;52.012;8.448;2022-12-18T10:02:20;46.07;;;5.83;;
8474;SDS011;4274;52.012;8.448;2022-12-18T10:08:08;45.40;;;7.40;;
8474;SDS011;4274;52.012;8.448;2022-12-18T10:10:47;45.70;;;7.50;;
8474;SDS011;4274;52.012;8.448;2022-12-18T10:16:02;43.20;;;5.47;;
8474;SDS011;4274;52.012;8.448;2022-12-18T10:21:30;42.37;;;4.80;;
8474;SDS011;4274;52.012;8.448;2022-12-18T10:26:51;45.97;;;6.80;;
8474;SDS011;4274;52.012;8.448;2022-12-18T10:29:18;43.77;;;6.50;;
8474;SDS011;4274;52.012;8.448;2022-12-18T10:31:44;43.47;;;6.03;;
8474;SDS011;4274;52.012;8.448;2022-12-18T10:34:10;44.20;;;5.70;;
8474;SDS011;4274;52.012;8.448;2022-12-18T10:36:36;41.27;;;5.10;;
8474;SDS011;4274;52.012;8.448;2022-12-18T10:39:24;42.70;;;5.37;;
8474;SDS011;4274;52.012;8.448;2022-12-18T10:41:51;44.53;;;5.80;;
8474;SDS011;4274;52.012;8.448;2022-12-18T10:46:43;43.97;;;5.40;;
8474;SDS011;4274;52.012;8.448;2022-12-18T10:49:21;43.17;;;5.47;;
8474;SDS011;4274;52.012;8.448;2022-12-18T10:54:50;42.93;;;4.93;;
8474;SDS011;4274;52.012;8.448;2022-12-18T11:02:52;42.40;;;5.40;;
8474;SDS011;4274;52.012;8.448;2022-12-18T11:07:55;47.90;;;7.63;;
8474;SDS011;4274;52.012;8.448;2022-12-18T11:10:23;52.37;;;9.43;;
8474;SDS011;4274;52.012;8.448;2022-12-18T11:13:11;44.43;;;6.00;;
8474;SDS011;4274;52.012;8.448;2022-12-18T11:15:42;41.93;;;5.30;;
8474;SDS011;4274;52.012;8.448;2022-12-18T11:18:16;42.30;;;5.93;;
8474;SDS011;4274;52.012;8.448;2022-12-18T11:20:59;44.50;;;5.40;;
8474;SDS011;4274;52.012;8.448;2022-12-18T11:23:34;42.90;;;6.47;;
8474;SDS011;4274;52.012;8.448;2022-12-18T11:26:01;43.50;;;5.73;;
8474;SDS011;4274;52.012;8.448;2022-12-18T11:31:34;44.30;;;4.87;;
8474;SDS011;4274;52.012;8.448;2022-12-18T11:36:41;41.97;;;5.10;;
8474;SDS011;4274;52.012;8.448;2022-12-18T11:39:12;42.93;;;4.90;;
8474;SDS011;4274;52.012;8.448;2022-12-18T11:41:51;42.67;;;5.03;;
8474;SDS011;4274;52.012;8.448;2022-12-18T11:48:01;42.47;;;5.87;;
8474;SDS011;4274;52.012;8.448;2022-12-18T11:50:46;45.40;;;4.97;;
8474;SDS011;4274;52.012;8.448;2022-12-18T11:53:16;41.47;;;4.77;;
8474;SDS011;4274;52.012;8.448;2022-12-18T11:55:48;45.90;;;6.10;;
8474;SDS011;4274;52.012;8.448;2022-12-18T12:07:07;42.83;;;5.13;;
8474;SDS011;4274;52.012;8.448;2022-12-18T12:26:48;42.13;;;4.70;;
8474;SDS011;4274;52.012;8.448;2022-12-18T12:34:34;42.30;;;4.83;;
8474;SDS011;4274;52.012;8.448;2022-12-18T12:39:44;43.20;;;6.03;;
8474;SDS011;4274;52.012;8.448;2022-12-18T12:42:27;46.27;;;7.00;;
8474;SDS011;4274;52.012;8.448;2022-12-18T12:48:31;45.40;;;6.77;;
8474;SDS011;4274;52.012;8.448;2022-12-18T12:50:58;43.47;;;6.10;;
8474;SDS011;4274;52.012;8.448;2022-12-18T12:53:34;41.80;;;5.27;;
8474;SDS011;4274;52.012;8.448;2022-12-18T12:56:02;43.87;;;5.93;;
8474;SDS011;4274;52.012;8.448;2022-12-18T13:01:16;48.83;;;6.13;;
8474;SDS011;4274;52.012;8.448;2022-12-18T13:03:57;44.10;;;5.70;;
8474;SDS011;4274;52.012;8.448;2022-12-18T13:06:39;43.30;;;6.03;;
8474;SDS011;4274;52.012;8.448;2022-12-18T13:09:06;45.73;;;4.40;;
8474;SDS011;4274;52.012;8.448;2022-12-18T13:14:36;42.90;;;5.30;;
8474;SDS011;4274;52.012;8.448;2022-12-18T13:17:13;48.33;;;7.60;;
8474;SDS011;4274;52.012;8.448;2022-12-18T13:19:39;44.80;;;6.60;;
8474;SDS011;4274;52.012;8.448;2022-12-18T13:22:12;44.60;;;6.17;;
8474;SDS011;4274;52.012;8.448;2022-12-18T13:24:49;40.33;;;4.80;;
8474;SDS011;4274;52.012;8.448;2022-12-18T13:40:59;40.20;;;4.90;;
8474;SDS011;4274;52.012;8.448;2022-12-18T13:46:24;41.70;;;4.57;;
8474;SDS011;4274;52.012;8.448;2022-12-18T13:49:03;45.73;;;5.13;;
8474;SDS011;4274;52.012;8.448;2022-12-18T13:51:43;43.37;;;5.60;;
8474;SDS011;4274;52.012;8.448;2022-12-18T13:56:46;41.50;;;4.97;;
8474;SDS011;4274;52.012;8.448;2022-12-18T13:59:14;41.60;;;5.37;;
8474;SDS011;4274;52.012;8.448;2022-12-18T14:01:47;41.17;;;5.20;;
8474;SDS011;4274;52.012;8.448;2022-12-18T14:04:18;41.23;;;4.40;;
8474;SDS011;4274;52.012;8.448;2022-12-18T14:06:53;42.37;;;5.60;;
8474;SDS011;4274;52.012;8.448;2022-12-18T14:09:24;44.00;;;4.90;;
8474;SDS011;4274;52.012;8.448;2022-12-18T14:11:52;42.97;;;4.67;;
8474;SDS011;4274;52.012;8.448;2022-12-18T14:14:40;45.87;;;7.17;;
8474;SDS011;4274;52.012;8.448;2022-12-18T14:17:12;43.30;;;6.13;;
8474;SDS011;4274;52.012;8.448;2022-12-18T14:19:42;47.00;;;5.90;;
8474;SDS011;4274;52.012;8.448;2022-12-18T14:22:22;43.03;;;5.33;;
8474;SDS011;4274;52.012;8.448;2022-12-18T14:25:14;42.43;;;5.50;;
8474;SDS011;4274;52.012;8.448;2022-12-18T14:27:46;41.80;;;5.03;;
8474;SDS011;4274;52.012;8.448;2022-12-18T14:30:36;40.60;;;4.90;;
8474;SDS011;4274;52.012;8.448;2022-12-18T14:33:11;43.00;;;5.23;;
8474;SDS011;4274;52.012;8.448;2022-12-18T14:40:56;54.47;;;11.50;;
8474;SDS011;4274;52.012;8.448;2022-12-18T14:43:22;43.50;;;5.37;;
8474;SDS011;4274;52.012;8.448;2022-12-18T14:45:48;67.53;;;7.40;;
8474;SDS011;4274;52.012;8.448;2022-12-18T14:50:56;43.50;;;5.23;;
8474;SDS011;4274;52.012;8.448;2022-12-18T14:53:28;41.90;;;5.00;;
8474;SDS011;4274;52.012;8.448;2022-12-18T14:56:03;45.47;;;5.50;;
8474;SDS011;4274;52.012;8.448;2022-12-18T14:58:44;44.23;;;5.13;;
8474;SDS011;4274;52.012;8.448;2022-12-18T15:01:31;44.27;;;6.27;;
8474;SDS011;4274;52.012;8.448;2022-12-18T15:04:01;44.80;;;5.37;;
8474;SDS011;4274;52.012;8.448;2022-12-18T15:06:32;47.70;;;6.60;;
8474;SDS011;4274;52.012;8.448;2022-12-18T15:09:00;61.67;;;14.67;;
8474;SDS011;4274;52.012;8.448;2022-12-18T15:11:45;43.60;;;6.10;;
8474;SDS011;4274;52.012;8.448;2022-12-18T15:17:14;45.50;;;6.13;;
8474;SDS011;4274;52.012;8.448;2022-12-18T15:19:44;47.93;;;6.47;;
8474;SDS011;4274;52.012;8.448;2022-12-18T15:22:30;46.37;;;8.30;;
8474;SDS011;4274;52.012;8.448;2022-12-18T15:24:59;47.17;;;5.50;;
8474;SDS011;4274;52.012;8.448;2022-12-18T15:27:35;42.97;;;7.27;;
8474;SDS011;4274;52.012;8.448;2022-12-18T15:32:35;48.83;;;7.90;;
8474;SDS011;4274;52.012;8.448;2022-12-18T15:35:09;47.67;;;7.10;;
8474;SDS011;4274;52.012;8.448;2022-12-18T15:37:38;43.50;;;6.80;;
8474;SDS011;4274;52.012;8.448;2022-12-18T15:40:03;50.07;;;7.20;;
8474;SDS011;4274;52.012;8.448;2022-12-18T15:42:29;46.93;;;6.60;;
8474;SDS011;4274;52.012;8.448;2022-12-18T15:45:14;45.63;;;6.00;;
8474;SDS011;4274;52.012;8.448;2022-12-18T15:47:40;45.53;;;7.10;;
8474;SDS011;4274;52.012;8.448;2022-12-18T15:50:08;45.07;;;6.83;;
8474;SDS011;4274;52.012;8.448;2022-12-18T15:52:38;44.27;;;6.50;;
8474;SDS011;4274;52.012;8.448;2022-12-18T15:55:12;46.60;;;7.67;;
8474;SDS011;4274;52.012;8.448;2022-12-18T15:57:57;47.13;;;7.20;;
8474;SDS011;4274;52.012;8.448;2022-12-18T16:00:23;47.00;;;8.33;;
8474;SDS011;4274;52.012;8.448;2022-12-18T16:02:48;55.30;;;7.20;;
8474;SDS011;4274;52.012;8.448;2022-12-18T16:05:14;48.53;;;8.70;;
8474;SDS011;4274;52.012;8.448;2022-12-18T16:07:42;47.57;;;8.43;;
8474;SDS011;4274;52.012;8.448;2022-12-18T16:10:09;50.10;;;8.17;;
8474;SDS011;4274;52.012;8.448;2022-12-18T16:12:35;50.70;;;9.03;;
8474;SDS011;4274;52.012;8.448;2022-12-18T16:15:01;50.87;;;9.00;;
8474;SDS011;4274;52.012;8.448;2022-12-18T16:17:27;48.63;;;8.27;;
8474;SDS011;4274;52.012;8.448;2022-12-18T16:19:53;48.50;;;8.37;;
8474;SDS011;4274;52.012;8.448;2022-12-18T16:22:26;48.03;;;8.27;;
8474;SDS011;4274;52.012;8.448;2022-12-18T16:24:53;45.50;;;7.03;;
8474;SDS011;4274;52.012;8.448;2022-12-18T16:27:20;47.17;;;7.90;;
8474;SDS011;4274;52.012;8.448;2022-12-18T16:29:48;47.43;;;7.80;;
8474;SDS011;4274;52.012;8.448;2022-12-18T16:32:15;48.20;;;7.97;;
8474;SDS011;4274;52.012;8.448;2022-12-18T16:34:44;46.40;;;7.50;;
8474;SDS011;4274;52.012;8.448;2022-12-18T16:37:10;45.87;;;7.90;;
8474;SDS011;4274;52.012;8.448;2022-12-18T16:39:38;48.33;;;7.37;;
8474;SDS011;4274;52.012;8.448;2022-12-18T16:42:05;49.20;;;9.00;;
8474;SDS011;4274;52.012;8.448;2022-12-18T16:44:34;46.70;;;7.70;;
8474;SDS011;4274;52.012;8.448;2022-12-18T16:47:00;45.63;;;8.60;;
8474;SDS011;4274;52.012;8.448;2022-12-18T16:49:26;49.55;;;7.35;;
8474;SDS011;4274;52.012;8.448;2022-12-18T16:51:53;50.13;;;9.17;;
8474;SDS011;4274;52.012;8.448;2022-12-18T16:54:18;49.93;;;8.87;;
8474;SDS011;4274;52.012;8.448;2022-12-18T16:56:44;47.00;;;8.43;;
8474;SDS011;4274;52.012;8.448;2022-12-18T16:59:11;45.77;;;7.90;;
8474;SDS011;4274;52.012;8.448;2022-12-18T17:01:37;50.47;;;8.03;;
8474;SDS011;4274;52.012;8.448;2022-12-18T17:04:04;52.90;;;9.37;;
8474;SDS011;4274;52.012;8.448;2022-12-18T17:06:31;49.23;;;9.20;;
8474;SDS011;4274;52.012;8.448;2022-12-18T17:08:58;51.30;;;9.00;;
8474;SDS011;4274;52.012;8.448;2022-12-18T17:11:26;52.70;;;9.60;;
8474;SDS011;4274;52.012;8.448;2022-12-18T17:13:52;50.00;;;10.30;;
8474;SDS011;4274;52.012;8.448;2022-12-18T17:16:18;48.70;;;8.53;;
8474;SDS011;4274;52.012;8.448;2022-12-18T17:18:45;55.07;;;9.13;;
8474;SDS011;4274;52.012;8.448;2022-12-18T17:21:10;50.40;;;8.87;;
8474;SDS011;4274;52.012;8.448;2022-12-18T17:23:38;49.67;;;9.93;;
8474;SDS011;4274;52.012;8.448;2022-12-18T17:26:05;64.13;;;10.20;;
8474;SDS011;4274;52.012;8.448;2022-12-18T17:28:32;51.20;;;9.13;;